sensor_id;sensor_type;location;lat;lon;timestamp;P1;durP1;ratioP1;P2;durP2;ratioP2
52432;SDS011;38352;53.244;6.594;2023-04-29T00:00:10;54.13;;;28.65;;
52432;SDS011;38352;53.244;6.594;2023-04-29T00:02:36;54.45;;;27.58;;
52432;SDS011;38352;53.244;6.594;2023-04-29T00:05:02;53.55;;;27.58;;
52432;SDS011;38352;53.244;6.594;2023-04-29T00:07:29;54.35;;;26.65;;
52432;SDS011;38352;53.244;6.594;2023-04-29T00:10:00;58.58;;;27.52;;
52432;SDS011;38352;53.244;6.594;2023-04-29T00:12:26;51.13;;;25.25;;
52432;SDS011;38352;53.244;6.594;2023-04-29T00:14:54;48.83;;;25.30;;
52432;SDS011;38352;53.244;6.594;2023-04-29T00:17:21;49.70;;;25.60;;
52432;SDS011;38352;53.244;6.594;2023-04-29T00:19:47;48.88;;;24.23;;
52432;SDS011;38352;53.244;6.594;2023-04-29T00:22:14;55.50;;;26.83;;
52432;SDS011;38352;53.244;6.594;2023-04-29T00:24:41;47.70;;;24.10;;
52432;SDS011;38352;53.244;6.594;2023-04-29T00:27:07;45.63;;;24.17;;
52432;SDS011;38352;53.244;6.594;2023-04-29T00:29:35;43.97;;;23.52;;
52432;SDS011;38352;53.244;6.594;2023-04-29T00:32:02;42.15;;;23.58;;
52432;SDS011;38352;53.244;6.594;2023-04-29T00:34:29;44.60;;;22.45;;
52432;SDS011;38352;53.244;6.594;2023-04-29T00:36:55;40.78;;;21.33;;
52432;SDS011;38352;53.244;6.594;2023-04-29T00:39:21;45.05;;;22.13;;
52432;SDS011;38352;53.244;6.594;2023-04-29T00:41:47;38.22;;;21.55;;
52432;SDS011;38352;53.244;6.594;2023-04-29T00:44:13;38.22;;;22.15;;
52432;SDS011;38352;53.244;6.594;2023-04-29T00:46:39;43.83;;;22.02;;
52432;SDS011;38352;53.244;6.594;2023-04-29T00:49:05;41.47;;;20.38;;
52432;SDS011;38352;53.244;6.594;2023-04-29T00:51:32;37.53;;;21.88;;
52432;SDS011;38352;53.244;6.594;2023-04-29T00:54:00;39.70;;;19.75;;
52432;SDS011;38352;53.244;6.594;2023-04-29T00:56:27;36.90;;;21.27;;
52432;SDS011;38352;53.244;6.594;2023-04-29T00:58:54;36.22;;;19.27;;
52432;SDS011;38352;53.244;6.594;2023-04-29T01:01:22;34.15;;;19.48;;
52432;SDS011;38352;53.244;6.594;2023-04-29T01:03:49;35.63;;;19.55;;
52432;SDS011;38352;53.244;6.594;2023-04-29T01:11:38;32.60;;;19.48;;
52432;SDS011;38352;53.244;6.594;2023-04-29T01:14:05;33.75;;;18.05;;
52432;SDS011;38352;53.244;6.594;2023-04-29T01:19:01;37.90;;;19.17;;
52432;SDS011;38352;53.244;6.594;2023-04-29T01:21:27;38.78;;;19.45;;
52432;SDS011;38352;53.244;6.594;2023-04-29T01:23:55;32.38;;;19.10;;
52432;SDS011;38352;53.244;6.594;2023-04-29T01:26:22;37.90;;;22.33;;
52432;SDS011;38352;53.244;6.594;2023-04-29T01:31:27;36.63;;;19.27;;
52432;SDS011;38352;53.244;6.594;2023-04-29T01:39:02;38.97;;;19.92;;
52432;SDS011;38352;53.244;6.594;2023-04-29T01:41:42;38.38;;;20.42;;
52432;SDS011;38352;53.244;6.594;2023-04-29T01:44:12;33.15;;;20.30;;
52432;SDS011;38352;53.244;6.594;2023-04-29T01:46:40;40.35;;;20.52;;
52432;SDS011;38352;53.244;6.594;2023-04-29T01:49:08;37.50;;;20.83;;
52432;SDS011;38352;53.244;6.594;2023-04-29T01:51:34;35.53;;;20.77;;
52432;SDS011;38352;53.244;6.594;2023-04-29T01:54:01;35.28;;;19.92;;
52432;SDS011;38352;53.244;6.594;2023-04-29T01:56:29;34.88;;;18.23;;
52432;SDS011;38352;53.244;6.594;2023-04-29T01:58:55;35.28;;;18.75;;
52432;SDS011;38352;53.244;6.594;2023-04-29T02:01:21;41.95;;;20.15;;
52432;SDS011;38352;53.244;6.594;2023-04-29T02:03:47;39.25;;;21.77;;
52432;SDS011;38352;53.244;6.594;2023-04-29T02:06:13;38.47;;;20.50;;
52432;SDS011;38352;53.244;6.594;2023-04-29T02:08:39;41.55;;;21.77;;
52432;SDS011;38352;53.244;6.594;2023-04-29T02:11:06;44.30;;;20.88;;
52432;SDS011;38352;53.244;6.594;2023-04-29T02:13:32;39.10;;;21.55;;
52432;SDS011;38352;53.244;6.594;2023-04-29T02:16:05;45.28;;;21.77;;
52432;SDS011;38352;53.244;6.594;2023-04-29T02:18:31;36.13;;;20.65;;
52432;SDS011;38352;53.244;6.594;2023-04-29T02:21:00;39.10;;;19.77;;
52432;SDS011;38352;53.244;6.594;2023-04-29T02:23:26;40.05;;;21.13;;
52432;SDS011;38352;53.244;6.594;2023-04-29T02:25:53;41.28;;;21.55;;
52432;SDS011;38352;53.244;6.594;2023-04-29T02:28:19;41.67;;;20.92;;
52432;SDS011;38352;53.244;6.594;2023-04-29T02:30:47;43.47;;;21.10;;
52432;SDS011;38352;53.244;6.594;2023-04-29T02:33:13;40.65;;;21.08;;
52432;SDS011;38352;53.244;6.594;2023-04-29T02:35:40;39.97;;;22.50;;
52432;SDS011;38352;53.244;6.594;2023-04-29T02:38:06;41.30;;;21.95;;
52432;SDS011;38352;53.244;6.594;2023-04-29T02:40:32;41.38;;;21.48;;
52432;SDS011;38352;53.244;6.594;2023-04-29T02:42:58;42.45;;;21.73;;
52432;SDS011;38352;53.244;6.594;2023-04-29T02:45:25;42.08;;;22.35;;
52432;SDS011;38352;53.244;6.594;2023-04-29T02:47:51;46.75;;;22.33;;
52432;SDS011;38352;53.244;6.594;2023-04-29T02:50:17;42.60;;;22.58;;
52432;SDS011;38352;53.244;6.594;2023-04-29T02:52:43;43.22;;;23.17;;
52432;SDS011;38352;53.244;6.594;2023-04-29T02:55:10;49.63;;;22.60;;
52432;SDS011;38352;53.244;6.594;2023-04-29T02:57:36;40.60;;;21.90;;
52432;SDS011;38352;53.244;6.594;2023-04-29T03:00:03;48.08;;;21.75;;
52432;SDS011;38352;53.244;6.594;2023-04-29T03:02:29;36.67;;;21.58;;
52432;SDS011;38352;53.244;6.594;2023-04-29T03:04:55;42.63;;;20.83;;
52432;SDS011;38352;53.244;6.594;2023-04-29T03:07:21;40.72;;;20.95;;
52432;SDS011;38352;53.244;6.594;2023-04-29T03:09:47;41.10;;;22.13;;
52432;SDS011;38352;53.244;6.594;2023-04-29T03:12:13;38.85;;;21.77;;
52432;SDS011;38352;53.244;6.594;2023-04-29T03:14:41;43.13;;;21.17;;
52432;SDS011;38352;53.244;6.594;2023-04-29T03:17:07;42.92;;;21.90;;
52432;SDS011;38352;53.244;6.594;2023-04-29T03:19:33;40.00;;;19.83;;
52432;SDS011;38352;53.244;6.594;2023-04-29T03:21:59;37.10;;;21.02;;
52432;SDS011;38352;53.244;6.594;2023-04-29T03:24:25;39.35;;;20.80;;
52432;SDS011;38352;53.244;6.594;2023-04-29T03:26:51;40.08;;;20.25;;
52432;SDS011;38352;53.244;6.594;2023-04-29T03:29:17;33.35;;;18.65;;
52432;SDS011;38352;53.244;6.594;2023-04-29T03:31:43;33.95;;;18.80;;
52432;SDS011;38352;53.244;6.594;2023-04-29T03:34:09;39.95;;;18.38;;
52432;SDS011;38352;53.244;6.594;2023-04-29T03:36:35;32.10;;;17.23;;
52432;SDS011;38352;53.244;6.594;2023-04-29T03:39:01;35.45;;;16.40;;
52432;SDS011;38352;53.244;6.594;2023-04-29T03:41:28;32.97;;;17.85;;
52432;SDS011;38352;53.244;6.594;2023-04-29T03:43:54;32.78;;;16.92;;
52432;SDS011;38352;53.244;6.594;2023-04-29T03:46:25;31.77;;;15.98;;
52432;SDS011;38352;53.244;6.594;2023-04-29T03:48:51;28.08;;;15.70;;
52432;SDS011;38352;53.244;6.594;2023-04-29T03:51:20;30.27;;;14.88;;
52432;SDS011;38352;53.244;6.594;2023-04-29T03:53:46;31.52;;;15.75;;
52432;SDS011;38352;53.244;6.594;2023-04-29T03:56:12;27.63;;;15.63;;
52432;SDS011;38352;53.244;6.594;2023-04-29T03:58:38;33.90;;;17.15;;
52432;SDS011;38352;53.244;6.594;2023-04-29T04:01:05;30.00;;;15.43;;
52432;SDS011;38352;53.244;6.594;2023-04-29T04:03:31;33.25;;;15.43;;
52432;SDS011;38352;53.244;6.594;2023-04-29T04:05:57;29.55;;;15.35;;
52432;SDS011;38352;53.244;6.594;2023-04-29T04:08:23;27.23;;;15.05;;
52432;SDS011;38352;53.244;6.594;2023-04-29T04:10:49;28.13;;;15.70;;
52432;SDS011;38352;53.244;6.594;2023-04-29T04:13:15;28.90;;;14.82;;
52432;SDS011;38352;53.244;6.594;2023-04-29T04:15:41;27.90;;;14.15;;
52432;SDS011;38352;53.244;6.594;2023-04-29T04:18:07;25.75;;;14.00;;
52432;SDS011;38352;53.244;6.594;2023-04-29T04:20:36;25.30;;;14.45;;
52432;SDS011;38352;53.244;6.594;2023-04-29T04:23:02;30.08;;;15.00;;
52432;SDS011;38352;53.244;6.594;2023-04-29T04:25:29;31.20;;;15.50;;
52432;SDS011;38352;53.244;6.594;2023-04-29T04:27:55;32.42;;;15.20;;
52432;SDS011;38352;53.244;6.594;2023-04-29T04:30:21;31.55;;;16.83;;
52432;SDS011;38352;53.244;6.594;2023-04-29T04:32:48;28.25;;;15.30;;
52432;SDS011;38352;53.244;6.594;2023-04-29T04:35:14;29.80;;;14.90;;
52432;SDS011;38352;53.244;6.594;2023-04-29T04:37:40;34.00;;;16.48;;
52432;SDS011;38352;53.244;6.594;2023-04-29T04:40:06;29.20;;;15.68;;
52432;SDS011;38352;53.244;6.594;2023-04-29T04:42:33;28.27;;;15.27;;
52432;SDS011;38352;53.244;6.594;2023-04-29T04:45:00;28.83;;;14.40;;
52432;SDS011;38352;53.244;6.594;2023-04-29T04:47:26;28.63;;;13.65;;
52432;SDS011;38352;53.244;6.594;2023-04-29T04:49:52;31.05;;;14.38;;
52432;SDS011;38352;53.244;6.594;2023-04-29T04:52:21;31.23;;;15.15;;
52432;SDS011;38352;53.244;6.594;2023-04-29T04:54:47;26.85;;;15.23;;
52432;SDS011;38352;53.244;6.594;2023-04-29T04:57:13;29.55;;;16.42;;
52432;SDS011;38352;53.244;6.594;2023-04-29T04:59:39;31.38;;;15.35;;
52432;SDS011;38352;53.244;6.594;2023-04-29T05:02:05;34.00;;;16.27;;
52432;SDS011;38352;53.244;6.594;2023-04-29T05:04:32;30.48;;;16.77;;
52432;SDS011;38352;53.244;6.594;2023-04-29T05:06:58;28.65;;;14.88;;
52432;SDS011;38352;53.244;6.594;2023-04-29T05:09:24;33.63;;;16.65;;
52432;SDS011;38352;53.244;6.594;2023-04-29T05:11:51;32.67;;;14.65;;
52432;SDS011;38352;53.244;6.594;2023-04-29T05:14:17;26.00;;;14.07;;
52432;SDS011;38352;53.244;6.594;2023-04-29T05:16:43;25.42;;;14.13;;
52432;SDS011;38352;53.244;6.594;2023-04-29T05:19:10;25.33;;;14.15;;
52432;SDS011;38352;53.244;6.594;2023-04-29T05:21:37;24.70;;;13.43;;
52432;SDS011;38352;53.244;6.594;2023-04-29T05:24:03;29.70;;;14.02;;
52432;SDS011;38352;53.244;6.594;2023-04-29T05:26:30;23.08;;;12.52;;
52432;SDS011;38352;53.244;6.594;2023-04-29T05:28:56;27.30;;;13.57;;
52432;SDS011;38352;53.244;6.594;2023-04-29T05:31:22;25.67;;;12.30;;
52432;SDS011;38352;53.244;6.594;2023-04-29T05:33:48;23.35;;;12.65;;
52432;SDS011;38352;53.244;6.594;2023-04-29T05:36:14;23.45;;;12.13;;
52432;SDS011;38352;53.244;6.594;2023-04-29T05:38:40;25.45;;;12.65;;
52432;SDS011;38352;53.244;6.594;2023-04-29T05:41:06;23.02;;;12.90;;
52432;SDS011;38352;53.244;6.594;2023-04-29T05:43:32;24.08;;;11.77;;
52432;SDS011;38352;53.244;6.594;2023-04-29T05:45:58;24.73;;;12.98;;
52432;SDS011;38352;53.244;6.594;2023-04-29T05:48:25;23.58;;;12.18;;
52432;SDS011;38352;53.244;6.594;2023-04-29T05:50:52;19.23;;;11.50;;
52432;SDS011;38352;53.244;6.594;2023-04-29T05:53:18;24.10;;;12.20;;
52432;SDS011;38352;53.244;6.594;2023-04-29T05:55:44;20.65;;;11.52;;
52432;SDS011;38352;53.244;6.594;2023-04-29T05:58:11;23.20;;;11.88;;
52432;SDS011;38352;53.244;6.594;2023-04-29T06:00:38;22.60;;;11.95;;
52432;SDS011;38352;53.244;6.594;2023-04-29T06:03:04;22.60;;;12.45;;
52432;SDS011;38352;53.244;6.594;2023-04-29T06:05:30;23.15;;;11.23;;
52432;SDS011;38352;53.244;6.594;2023-04-29T06:07:58;25.38;;;12.38;;
52432;SDS011;38352;53.244;6.594;2023-04-29T06:10:24;20.90;;;11.25;;
52432;SDS011;38352;53.244;6.594;2023-04-29T06:12:50;20.25;;;11.32;;
52432;SDS011;38352;53.244;6.594;2023-04-29T06:15:16;21.80;;;11.88;;
52432;SDS011;38352;53.244;6.594;2023-04-29T06:17:45;18.48;;;11.05;;
52432;SDS011;38352;53.244;6.594;2023-04-29T06:20:11;21.38;;;12.02;;
52432;SDS011;38352;53.244;6.594;2023-04-29T06:22:37;21.17;;;11.55;;
52432;SDS011;38352;53.244;6.594;2023-04-29T06:25:04;20.75;;;10.93;;
52432;SDS011;38352;53.244;6.594;2023-04-29T06:27:30;27.88;;;12.18;;
52432;SDS011;38352;53.244;6.594;2023-04-29T06:29:56;23.08;;;12.23;;
52432;SDS011;38352;53.244;6.594;2023-04-29T06:32:23;20.25;;;11.80;;
52432;SDS011;38352;53.244;6.594;2023-04-29T06:34:49;23.88;;;11.65;;
52432;SDS011;38352;53.244;6.594;2023-04-29T06:37:15;22.65;;;12.60;;
52432;SDS011;38352;53.244;6.594;2023-04-29T06:39:41;25.17;;;10.95;;
52432;SDS011;38352;53.244;6.594;2023-04-29T06:42:07;19.35;;;11.15;;
52432;SDS011;38352;53.244;6.594;2023-04-29T06:44:34;18.70;;;10.98;;
52432;SDS011;38352;53.244;6.594;2023-04-29T06:47:00;19.92;;;10.60;;
52432;SDS011;38352;53.244;6.594;2023-04-29T06:49:26;19.63;;;10.43;;
52432;SDS011;38352;53.244;6.594;2023-04-29T06:51:52;17.65;;;10.55;;
52432;SDS011;38352;53.244;6.594;2023-04-29T06:54:19;16.83;;;9.48;;
52432;SDS011;38352;53.244;6.594;2023-04-29T06:56:45;16.25;;;9.77;;
52432;SDS011;38352;53.244;6.594;2023-04-29T06:59:12;18.00;;;10.93;;
52432;SDS011;38352;53.244;6.594;2023-04-29T07:01:39;19.83;;;10.25;;
52432;SDS011;38352;53.244;6.594;2023-04-29T07:04:05;15.70;;;8.35;;
52432;SDS011;38352;53.244;6.594;2023-04-29T07:06:31;19.88;;;9.95;;
52432;SDS011;38352;53.244;6.594;2023-04-29T07:08:57;19.15;;;9.52;;
52432;SDS011;38352;53.244;6.594;2023-04-29T07:11:23;20.05;;;9.35;;
52432;SDS011;38352;53.244;6.594;2023-04-29T07:13:54;20.58;;;9.65;;
52432;SDS011;38352;53.244;6.594;2023-04-29T07:16:20;18.02;;;8.35;;
52432;SDS011;38352;53.244;6.594;2023-04-29T07:18:46;16.77;;;8.63;;
52432;SDS011;38352;53.244;6.594;2023-04-29T07:21:13;18.20;;;8.57;;
52432;SDS011;38352;53.244;6.594;2023-04-29T07:23:39;15.15;;;8.07;;
52432;SDS011;38352;53.244;6.594;2023-04-29T07:26:09;13.35;;;8.00;;
52432;SDS011;38352;53.244;6.594;2023-04-29T07:28:35;13.30;;;7.75;;
52432;SDS011;38352;53.244;6.594;2023-04-29T07:31:01;14.95;;;7.63;;
52432;SDS011;38352;53.244;6.594;2023-04-29T07:33:27;17.83;;;7.65;;
52432;SDS011;38352;53.244;6.594;2023-04-29T07:35:53;14.13;;;6.72;;
52432;SDS011;38352;53.244;6.594;2023-04-29T07:38:19;16.48;;;7.10;;
52432;SDS011;38352;53.244;6.594;2023-04-29T07:40:46;14.68;;;6.70;;
52432;SDS011;38352;53.244;6.594;2023-04-29T07:43:12;14.27;;;7.15;;
52432;SDS011;38352;53.244;6.594;2023-04-29T07:45:38;14.95;;;6.80;;
52432;SDS011;38352;53.244;6.594;2023-04-29T07:48:04;18.25;;;7.20;;
52432;SDS011;38352;53.244;6.594;2023-04-29T07:50:33;14.07;;;7.03;;
52432;SDS011;38352;53.244;6.594;2023-04-29T07:53:00;18.15;;;7.82;;
52432;SDS011;38352;53.244;6.594;2023-04-29T07:55:27;13.07;;;6.88;;
52432;SDS011;38352;53.244;6.594;2023-04-29T07:57:59;17.08;;;6.75;;
52432;SDS011;38352;53.244;6.594;2023-04-29T08:00:25;15.70;;;7.18;;
52432;SDS011;38352;53.244;6.594;2023-04-29T08:02:55;16.55;;;7.05;;
52432;SDS011;38352;53.244;6.594;2023-04-29T08:05:22;16.90;;;7.28;;
52432;SDS011;38352;53.244;6.594;2023-04-29T08:07:48;14.60;;;7.53;;
52432;SDS011;38352;53.244;6.594;2023-04-29T08:10:14;20.38;;;6.38;;
52432;SDS011;38352;53.244;6.594;2023-04-29T08:12:41;12.13;;;6.20;;
52432;SDS011;38352;53.244;6.594;2023-04-29T08:15:07;12.55;;;6.70;;
52432;SDS011;38352;53.244;6.594;2023-04-29T08:17:33;11.98;;;6.85;;
52432;SDS011;38352;53.244;6.594;2023-04-29T08:19:59;16.73;;;6.50;;
52432;SDS011;38352;53.244;6.594;2023-04-29T08:22:25;15.25;;;6.82;;
52432;SDS011;38352;53.244;6.594;2023-04-29T08:24:51;13.13;;;6.63;;
52432;SDS011;38352;53.244;6.594;2023-04-29T08:27:17;18.10;;;7.78;;
52432;SDS011;38352;53.244;6.594;2023-04-29T08:29:48;14.90;;;6.82;;
52432;SDS011;38352;53.244;6.594;2023-04-29T08:32:14;15.90;;;6.63;;
52432;SDS011;38352;53.244;6.594;2023-04-29T08:34:40;13.23;;;6.50;;
52432;SDS011;38352;53.244;6.594;2023-04-29T08:37:08;14.32;;;7.03;;
52432;SDS011;38352;53.244;6.594;2023-04-29T08:39:34;13.05;;;7.63;;
52432;SDS011;38352;53.244;6.594;2023-04-29T08:42:06;15.52;;;6.85;;
52432;SDS011;38352;53.244;6.594;2023-04-29T08:44:32;14.10;;;6.22;;
52432;SDS011;38352;53.244;6.594;2023-04-29T08:46:59;14.88;;;6.57;;
52432;SDS011;38352;53.244;6.594;2023-04-29T08:49:30;11.45;;;5.75;;
52432;SDS011;38352;53.244;6.594;2023-04-29T08:52:02;15.23;;;6.05;;
52432;SDS011;38352;53.244;6.594;2023-04-29T08:54:29;9.65;;;5.57;;
52432;SDS011;38352;53.244;6.594;2023-04-29T08:56:56;10.02;;;5.25;;
52432;SDS011;38352;53.244;6.594;2023-04-29T08:59:23;10.63;;;5.55;;
52432;SDS011;38352;53.244;6.594;2023-04-29T09:01:50;10.50;;;4.25;;
52432;SDS011;38352;53.244;6.594;2023-04-29T09:04:27;9.63;;;4.60;;
52432;SDS011;38352;53.244;6.594;2023-04-29T09:06:55;9.10;;;4.50;;
52432;SDS011;38352;53.244;6.594;2023-04-29T09:09:23;7.82;;;3.78;;
52432;SDS011;38352;53.244;6.594;2023-04-29T09:11:49;15.07;;;4.18;;
52432;SDS011;38352;53.244;6.594;2023-04-29T09:14:15;8.77;;;4.32;;
52432;SDS011;38352;53.244;6.594;2023-04-29T09:16:44;10.07;;;4.00;;
52432;SDS011;38352;53.244;6.594;2023-04-29T09:19:12;10.30;;;5.20;;
52432;SDS011;38352;53.244;6.594;2023-04-29T09:21:54;8.40;;;4.20;;
52432;SDS011;38352;53.244;6.594;2023-04-29T09:24:23;10.27;;;4.32;;
52432;SDS011;38352;53.244;6.594;2023-04-29T09:26:50;11.20;;;3.97;;
52432;SDS011;38352;53.244;6.594;2023-04-29T09:29:16;8.00;;;3.78;;
52432;SDS011;38352;53.244;6.594;2023-04-29T09:31:43;8.73;;;4.55;;
52432;SDS011;38352;53.244;6.594;2023-04-29T09:34:09;8.02;;;3.75;;
52432;SDS011;38352;53.244;6.594;2023-04-29T09:36:44;9.10;;;5.25;;
52432;SDS011;38352;53.244;6.594;2023-04-29T09:41:58;13.25;;;5.78;;
52432;SDS011;38352;53.244;6.594;2023-04-29T09:44:30;9.70;;;5.90;;
52432;SDS011;38352;53.244;6.594;2023-04-29T09:49:27;11.90;;;5.95;;
52432;SDS011;38352;53.244;6.594;2023-04-29T09:51:54;9.63;;;5.18;;
52432;SDS011;38352;53.244;6.594;2023-04-29T09:54:21;11.27;;;5.78;;
52432;SDS011;38352;53.244;6.594;2023-04-29T09:56:48;15.13;;;5.85;;
52432;SDS011;38352;53.244;6.594;2023-04-29T09:59:16;10.88;;;5.75;;
52432;SDS011;38352;53.244;6.594;2023-04-29T10:01:51;10.55;;;5.75;;
52432;SDS011;38352;53.244;6.594;2023-04-29T10:04:20;16.20;;;5.70;;
52432;SDS011;38352;53.244;6.594;2023-04-29T10:06:48;13.38;;;5.85;;
52432;SDS011;38352;53.244;6.594;2023-04-29T10:09:15;11.00;;;5.95;;
52432;SDS011;38352;53.244;6.594;2023-04-29T10:11:46;11.07;;;6.53;;
52432;SDS011;38352;53.244;6.594;2023-04-29T10:14:22;11.60;;;6.25;;
52432;SDS011;38352;53.244;6.594;2023-04-29T10:19:54;13.20;;;6.95;;
52432;SDS011;38352;53.244;6.594;2023-04-29T10:22:11;10.45;;;6.00;;
52432;SDS011;38352;53.244;6.594;2023-04-29T10:24:38;11.27;;;6.22;;
52432;SDS011;38352;53.244;6.594;2023-04-29T10:27:07;11.73;;;5.47;;
52432;SDS011;38352;53.244;6.594;2023-04-29T10:29:36;8.60;;;5.45;;
52432;SDS011;38352;53.244;6.594;2023-04-29T10:32:03;9.10;;;5.13;;
52432;SDS011;38352;53.244;6.594;2023-04-29T10:34:30;9.75;;;4.75;;
52432;SDS011;38352;53.244;6.594;2023-04-29T10:36:57;7.25;;;4.13;;
52432;SDS011;38352;53.244;6.594;2023-04-29T10:39:30;8.52;;;3.60;;
52432;SDS011;38352;53.244;6.594;2023-04-29T10:42:00;8.85;;;3.30;;
52432;SDS011;38352;53.244;6.594;2023-04-29T10:44:27;7.72;;;2.90;;
52432;SDS011;38352;53.244;6.594;2023-04-29T10:49:38;7.22;;;3.65;;
52432;SDS011;38352;53.244;6.594;2023-04-29T10:52:05;6.57;;;3.33;;
52432;SDS011;38352;53.244;6.594;2023-04-29T10:54:31;5.43;;;3.00;;
52432;SDS011;38352;53.244;6.594;2023-04-29T10:56:57;5.63;;;2.90;;
52432;SDS011;38352;53.244;6.594;2023-04-29T11:01:52;7.45;;;3.08;;
52432;SDS011;38352;53.244;6.594;2023-04-29T11:04:21;4.72;;;3.05;;
52432;SDS011;38352;53.244;6.594;2023-04-29T11:06:52;5.70;;;3.00;;
52432;SDS011;38352;53.244;6.594;2023-04-29T11:09:19;6.63;;;2.70;;
52432;SDS011;38352;53.244;6.594;2023-04-29T11:11:47;7.75;;;2.75;;
52432;SDS011;38352;53.244;6.594;2023-04-29T11:14:14;7.95;;;3.00;;
52432;SDS011;38352;53.244;6.594;2023-04-29T11:16:47;7.70;;;3.00;;
52432;SDS011;38352;53.244;6.594;2023-04-29T11:19:14;5.00;;;2.42;;
52432;SDS011;38352;53.244;6.594;2023-04-29T11:21:40;5.00;;;2.65;;
52432;SDS011;38352;53.244;6.594;2023-04-29T11:24:06;4.10;;;2.38;;
52432;SDS011;38352;53.244;6.594;2023-04-29T11:26:33;4.68;;;2.60;;
52432;SDS011;38352;53.244;6.594;2023-04-29T11:28:59;7.20;;;3.35;;
52432;SDS011;38352;53.244;6.594;2023-04-29T11:31:28;7.38;;;4.13;;
52432;SDS011;38352;53.244;6.594;2023-04-29T11:33:55;11.35;;;3.83;;
52432;SDS011;38352;53.244;6.594;2023-04-29T11:36:21;6.25;;;2.80;;
52432;SDS011;38352;53.244;6.594;2023-04-29T11:38:47;5.60;;;2.67;;
52432;SDS011;38352;53.244;6.594;2023-04-29T11:41:13;5.57;;;2.35;;
52432;SDS011;38352;53.244;6.594;2023-04-29T11:43:40;5.50;;;3.08;;
52432;SDS011;38352;53.244;6.594;2023-04-29T11:46:14;6.13;;;2.70;;
52432;SDS011;38352;53.244;6.594;2023-04-29T11:48:47;5.63;;;2.63;;
52432;SDS011;38352;53.244;6.594;2023-04-29T11:51:14;5.13;;;3.35;;
52432;SDS011;38352;53.244;6.594;2023-04-29T11:53:40;8.52;;;2.97;;
52432;SDS011;38352;53.244;6.594;2023-04-29T11:56:10;5.88;;;2.80;;
52432;SDS011;38352;53.244;6.594;2023-04-29T11:58:36;5.18;;;2.53;;
52432;SDS011;38352;53.244;6.594;2023-04-29T12:01:03;5.75;;;2.70;;
52432;SDS011;38352;53.244;6.594;2023-04-29T12:03:30;9.73;;;3.45;;
52432;SDS011;38352;53.244;6.594;2023-04-29T12:05:56;5.10;;;2.15;;
52432;SDS011;38352;53.244;6.594;2023-04-29T12:08:23;5.82;;;2.63;;
52432;SDS011;38352;53.244;6.594;2023-04-29T12:10:50;5.68;;;2.35;;
52432;SDS011;38352;53.244;6.594;2023-04-29T12:13:16;5.72;;;2.67;;
52432;SDS011;38352;53.244;6.594;2023-04-29T12:15:46;6.55;;;2.50;;
52432;SDS011;38352;53.244;6.594;2023-04-29T12:18:14;4.70;;;2.45;;
52432;SDS011;38352;53.244;6.594;2023-04-29T12:20:42;4.07;;;2.22;;
52432;SDS011;38352;53.244;6.594;2023-04-29T12:25:37;8.00;;;2.70;;
52432;SDS011;38352;53.244;6.594;2023-04-29T12:28:06;9.70;;;2.92;;
52432;SDS011;38352;53.244;6.594;2023-04-29T12:30:36;6.03;;;2.88;;
52432;SDS011;38352;53.244;6.594;2023-04-29T12:33:02;5.78;;;2.78;;
52432;SDS011;38352;53.244;6.594;2023-04-29T12:35:28;5.35;;;2.08;;
52432;SDS011;38352;53.244;6.594;2023-04-29T12:37:56;3.90;;;2.30;;
52432;SDS011;38352;53.244;6.594;2023-04-29T12:40:23;6.03;;;2.17;;
52432;SDS011;38352;53.244;6.594;2023-04-29T12:42:52;5.25;;;2.13;;
52432;SDS011;38352;53.244;6.594;2023-04-29T12:45:31;5.40;;;2.35;;
52432;SDS011;38352;53.244;6.594;2023-04-29T12:47:58;5.10;;;2.38;;
52432;SDS011;38352;53.244;6.594;2023-04-29T12:50:28;4.85;;;2.40;;
52432;SDS011;38352;53.244;6.594;2023-04-29T12:52:55;4.43;;;2.42;;
52432;SDS011;38352;53.244;6.594;2023-04-29T12:55:21;4.13;;;2.47;;
52432;SDS011;38352;53.244;6.594;2023-04-29T12:57:47;5.57;;;2.50;;
52432;SDS011;38352;53.244;6.594;2023-04-29T13:00:13;4.75;;;2.22;;
52432;SDS011;38352;53.244;6.594;2023-04-29T13:02:40;7.70;;;2.78;;
52432;SDS011;38352;53.244;6.594;2023-04-29T13:05:06;6.85;;;2.80;;
52432;SDS011;38352;53.244;6.594;2023-04-29T13:07:33;6.25;;;3.20;;
52432;SDS011;38352;53.244;6.594;2023-04-29T13:09:59;6.88;;;3.25;;
52432;SDS011;38352;53.244;6.594;2023-04-29T13:12:26;8.50;;;4.40;;
52432;SDS011;38352;53.244;6.594;2023-04-29T13:14:52;8.40;;;4.20;;
52432;SDS011;38352;53.244;6.594;2023-04-29T13:17:19;9.38;;;4.13;;
52432;SDS011;38352;53.244;6.594;2023-04-29T13:19:45;10.13;;;4.55;;
52432;SDS011;38352;53.244;6.594;2023-04-29T13:22:12;8.75;;;4.68;;
52432;SDS011;38352;53.244;6.594;2023-04-29T13:24:38;8.43;;;4.57;;
52432;SDS011;38352;53.244;6.594;2023-04-29T13:27:04;8.77;;;4.97;;
52432;SDS011;38352;53.244;6.594;2023-04-29T13:29:30;7.65;;;4.80;;
52432;SDS011;38352;53.244;6.594;2023-04-29T13:31:56;9.27;;;5.57;;
52432;SDS011;38352;53.244;6.594;2023-04-29T13:34:22;10.70;;;5.60;;
52432;SDS011;38352;53.244;6.594;2023-04-29T13:36:48;10.50;;;6.32;;
52432;SDS011;38352;53.244;6.594;2023-04-29T13:39:14;13.02;;;6.50;;
52432;SDS011;38352;53.244;6.594;2023-04-29T13:41:41;13.18;;;6.22;;
52432;SDS011;38352;53.244;6.594;2023-04-29T13:44:07;8.65;;;5.53;;
52432;SDS011;38352;53.244;6.594;2023-04-29T13:46:33;10.98;;;6.07;;
52432;SDS011;38352;53.244;6.594;2023-04-29T13:48:59;9.10;;;5.80;;
52432;SDS011;38352;53.244;6.594;2023-04-29T13:51:26;9.07;;;5.88;;
52432;SDS011;38352;53.244;6.594;2023-04-29T13:53:52;9.13;;;5.38;;
52432;SDS011;38352;53.244;6.594;2023-04-29T13:56:18;10.68;;;5.60;;
52432;SDS011;38352;53.244;6.594;2023-04-29T13:58:45;8.77;;;5.43;;
52432;SDS011;38352;53.244;6.594;2023-04-29T14:01:11;7.75;;;5.28;;
52432;SDS011;38352;53.244;6.594;2023-04-29T14:03:37;9.50;;;5.53;;
52432;SDS011;38352;53.244;6.594;2023-04-29T14:06:03;8.65;;;5.55;;
52432;SDS011;38352;53.244;6.594;2023-04-29T14:08:30;7.68;;;4.22;;
52432;SDS011;38352;53.244;6.594;2023-04-29T14:10:56;8.65;;;4.40;;
52432;SDS011;38352;53.244;6.594;2023-04-29T14:13:22;10.82;;;4.78;;
52432;SDS011;38352;53.244;6.594;2023-04-29T14:15:48;8.30;;;4.82;;
52432;SDS011;38352;53.244;6.594;2023-04-29T14:18:15;9.15;;;4.93;;
52432;SDS011;38352;53.244;6.594;2023-04-29T14:20:41;6.10;;;3.85;;
52432;SDS011;38352;53.244;6.594;2023-04-29T14:23:07;7.65;;;4.18;;
52432;SDS011;38352;53.244;6.594;2023-04-29T14:25:33;7.72;;;4.20;;
52432;SDS011;38352;53.244;6.594;2023-04-29T14:27:59;7.90;;;4.28;;
52432;SDS011;38352;53.244;6.594;2023-04-29T14:30:25;8.13;;;4.05;;
52432;SDS011;38352;53.244;6.594;2023-04-29T14:32:51;10.40;;;3.60;;
52432;SDS011;38352;53.244;6.594;2023-04-29T14:35:17;8.68;;;4.43;;
52432;SDS011;38352;53.244;6.594;2023-04-29T14:37:43;7.30;;;4.47;;
52432;SDS011;38352;53.244;6.594;2023-04-29T14:40:10;7.43;;;3.83;;
52432;SDS011;38352;53.244;6.594;2023-04-29T14:42:36;4.57;;;2.70;;
52432;SDS011;38352;53.244;6.594;2023-04-29T14:45:05;6.45;;;3.28;;
52432;SDS011;38352;53.244;6.594;2023-04-29T14:47:32;7.20;;;3.40;;
52432;SDS011;38352;53.244;6.594;2023-04-29T14:49:58;5.45;;;3.10;;
52432;SDS011;38352;53.244;6.594;2023-04-29T14:52:24;5.03;;;2.88;;
52432;SDS011;38352;53.244;6.594;2023-04-29T14:54:50;5.97;;;2.83;;
52432;SDS011;38352;53.244;6.594;2023-04-29T14:57:16;4.63;;;2.95;;
52432;SDS011;38352;53.244;6.594;2023-04-29T14:59:42;5.68;;;2.85;;
52432;SDS011;38352;53.244;6.594;2023-04-29T15:02:08;6.50;;;3.08;;